Impacts METAR Board
IDs:

KCLE - Cleveland/Hopkins In, OH, US

Updated at: 1600 UTC 03 Dec 2021
Potential Impact None Slight Moderate High
Time 03/04Z 03/05Z 03/06Z 03/07Z 03/08Z 03/09Z 03/10Z 03/11Z 03/12Z 03/13Z 03/14Z 03/15Z 03/16Z
Temp44 43 40 39 36 35 38 37 39 39 38 39 38
Dewpt31 31 31 29 28 28 28 29 28 27 28 28 31
Altim29.95 29.98 29.99 30.00 30.01 30.02 30.03 30.04 30.07 30.08 30.10 30.11 30.12
VIS10 10 10 10 10 10 10 10 10 10 10 10 10
CIG50 35 160 200 170 180 110 110 90 85 90 80 23
CoverOVCOVCBKNBKNBKNBKNOVCOVCOVCOVCOVCOVCOVC
FltCatVFRVFRVFRVFRVFRVFRVFRVFRVFRVFRVFRVFRMVFR
WX--------------------------
WDir330340310300290280290260320330270320360
WSpd12 8 5 6 4 5 6 6 6 4 3 6 8
WGst-- -- -- -- -- -- -- -- -- -- -- -- --
Raw hourly METARs
KCLE 030351Z 33012KT 10SM FEW042 OVC050 07/M01 A2995 RMK AO2 SLP162 T00671006 $
KCLE 030451Z 34008KT 10SM BKN035 OVC050 06/M01 A2998 RMK AO2 SLP171 T00611006 401330056 $
KCLE 030551Z 31005KT 10SM SCT045 BKN160 04/M01 A2999 RMK AO2 SLP176 T00441006 10078 20044 51021 $
KCLE 030651Z 30006KT 10SM FEW160 BKN200 04/M02 A3000 RMK AO2 SLP178 T00391017 $
KCLE 030751Z 29004KT 10SM FEW032 BKN170 02/M02 A3001 RMK AO2 SLP181 T00221022 $
KCLE 030851Z 28005KT 10SM FEW025 BKN180 02/M02 A3002 RMK AO2 SLP186 T00171022 53009 $
KCLE 030951Z 29006KT 10SM FEW025 BKN110 OVC150 03/M02 A3003 RMK AO2 SLP189 T00331022 $
KCLE 031051Z 26006KT 10SM FEW029 OVC110 03/M02 A3004 RMK AO2 SLP194 T00281017 $
KCLE 031151Z 32006KT 10SM FEW029 OVC090 04/M02 A3007 RMK AO2 SLP204 T00391022 10050 20011 53016 $
KCLE 031251Z 33004KT 10SM FEW029 OVC085 04/M03 A3008 RMK AO2 SLP208 T00391028 $
KCLE 031351Z 27003KT 10SM BKN090 OVC110 03/M02 A3010 RMK AO2 SLP214 T00331022 $
KCLE 031451Z 32006KT 10SM FEW025 BKN080 OVC110 04/M02 A3011 RMK AO2 SLP216 T00391022 51012 $
KCLE 031551Z 36008KT 10SM BKN023 BKN085 OVC100 03/M01 A3012 RMK AO2 SLP220 T00331006 $



Page loaded:  16:10 UTC  |   08:10 AM Pacific  |   09:10 AM Mountain  |   10:10 AM Central  |   11:10 AM Eastern

 

ADVISORIES

FORECASTS

FORECASTS

OBSERVATIONS

USER TOOLS

ABOUT US